createdAt,value
2022-09-12T00:03:28.126Z,98779.20
2022-09-12T00:08:30.932Z,98779.31
2022-09-12T00:13:37.273Z,98776.04
2022-09-12T00:18:42.833Z,98767.86
2022-09-12T00:23:46.466Z,98770.40
2022-09-12T00:28:50.916Z,98775.94
2022-09-12T00:33:56.820Z,98777.71
2022-09-12T00:39:00.088Z,98783.56
2022-09-12T00:44:23.531Z,98778.08
2022-09-12T00:49:31.806Z,98788.39
2022-09-12T00:54:42.870Z,98783.96
2022-09-12T00:59:54.127Z,98785.00
2022-09-12T01:04:57.162Z,98784.38
2022-09-12T01:10:00.010Z,98782.90
2022-09-12T01:15:03.471Z,98784.29
2022-09-12T01:20:30.781Z,98779.76
2022-09-12T01:25:54.837Z,98777.48
2022-09-12T01:31:25.455Z,98785.05
2022-09-12T01:36:39.397Z,98786.77
2022-09-12T01:41:54.687Z,98787.29
2022-09-12T01:47:11.409Z,98785.59
2022-09-12T01:52:22.832Z,98781.52
2022-09-12T01:57:39.676Z,98787.79
2022-09-12T02:03:03.496Z,98793.61
2022-09-12T02:08:17.203Z,98799.04
2022-09-12T02:13:29.795Z,98806.34
2022-09-12T02:18:37.017Z,98803.66
2022-09-12T02:23:45.252Z,98802.41
2022-09-12T02:28:48.830Z,98796.98
2022-09-12T02:34:03.775Z,98794.23
2022-09-12T02:39:07.056Z,98786.07
2022-09-12T02:44:10.011Z,98779.70
2022-09-12T02:49:13.206Z,98784.69
2022-09-12T02:54:17.921Z,98784.20
2022-09-12T02:59:23.207Z,98783.19
2022-09-12T03:05:05.979Z,98786.06
2022-09-12T03:10:15.164Z,98792.86
2022-09-12T03:15:17.916Z,98798.79
2022-09-12T03:20:36.946Z,98796.13
2022-09-12T03:26:07.433Z,98805.67
2022-09-12T03:31:16.046Z,98807.95
2022-09-12T03:36:24.225Z,98809.48
2022-09-12T03:41:27.019Z,98808.47
2022-09-12T03:46:30.032Z,98812.39
2022-09-12T03:51:32.920Z,98823.88
2022-09-12T03:56:36.175Z,98828.17
2022-09-12T04:01:39.090Z,98826.78
2022-09-12T04:06:43.108Z,98829.77
2022-09-12T04:11:46.057Z,98833.61
2022-09-12T04:16:49.166Z,98840.27
2022-09-12T04:21:52.552Z,98832.17
2022-09-12T04:26:55.759Z,98833.73
2022-09-12T04:31:59.180Z,98834.29
2022-09-12T04:37:02.235Z,98838.71
2022-09-12T04:42:05.644Z,98836.63
2022-09-12T04:47:08.783Z,98838.79
2022-09-12T04:52:11.615Z,98843.92
2022-09-12T04:57:14.467Z,98846.05
2022-09-12T05:02:18.198Z,98851.54
2022-09-12T05:07:21.130Z,98859.98
2022-09-12T05:12:24.893Z,98860.38
2022-09-12T05:17:30.259Z,98864.48
2022-09-12T05:22:33.062Z,98867.67
2022-09-12T05:27:35.901Z,98873.59
2022-09-12T05:32:38.840Z,98879.50
2022-09-12T05:37:43.249Z,98884.75
2022-09-12T05:42:46.063Z,98885.17
2022-09-12T05:47:49.031Z,98882.27
2022-09-12T05:52:51.874Z,98880.43
2022-09-12T05:57:54.720Z,98875.15
2022-09-12T06:02:58.009Z,98873.68
2022-09-12T06:08:00.891Z,98878.80
2022-09-12T06:13:04.396Z,98879.77
2022-09-12T06:18:07.386Z,98877.66
2022-09-12T06:23:10.520Z,98878.88
2022-09-12T06:28:13.301Z,98890.15
2022-09-12T06:33:17.033Z,98885.10
2022-09-12T06:38:19.868Z,98882.35
2022-09-12T06:43:22.896Z,98892.76
2022-09-12T06:48:26.175Z,98900.55
2022-09-12T06:53:30.762Z,98901.65
2022-09-12T06:58:35.110Z,98899.84
2022-09-12T07:03:38.957Z,98903.68
2022-09-12T07:08:42.591Z,98911.17
2022-09-12T07:13:47.432Z,98914.73
2022-09-12T07:18:52.861Z,98913.20
2022-09-12T07:23:58.001Z,98910.16
2022-09-12T07:29:25.131Z,98911.77
2022-09-12T07:34:24.665Z,98917.73
2022-09-12T07:39:27.662Z,98927.83
2022-09-12T07:44:30.632Z,98931.02
2022-09-12T07:49:33.524Z,98927.84
2022-09-12T07:54:37.495Z,98928.45
2022-09-12T07:59:52.546Z,98929.86
2022-09-12T08:04:56.851Z,98931.91
2022-09-12T08:10:00.563Z,98934.38
2022-09-12T08:15:04.195Z,98938.82
2022-09-12T08:20:09.384Z,98941.10
2022-09-12T08:25:12.277Z,98949.89
2022-09-12T08:30:15.218Z,98951.56
2022-09-12T08:35:18.550Z,98942.02
2022-09-12T08:40:21.795Z,98934.58
2022-09-12T08:45:38.917Z,98936.34
2022-09-12T08:50:49.229Z,98938.70
2022-09-12T08:55:53.970Z,98939.03
2022-09-12T09:01:01.386Z,98943.75
2022-09-12T09:06:33.468Z,98937.86
2022-09-12T09:12:04.863Z,98934.77
2022-09-12T09:17:21.565Z,98933.66
2022-09-12T09:22:39.904Z,98933.33
2022-09-12T09:27:49.353Z,98938.16
2022-09-12T09:32:57.601Z,98922.98
2022-09-12T09:38:08.865Z,98930.18
2022-09-12T09:43:23.778Z,98927.66
2022-09-12T09:48:35.964Z,98926.89
2022-09-12T09:54:00.472Z,98923.33
2022-09-12T09:59:09.282Z,98922.23
2022-09-12T10:04:26.096Z,98920.93
2022-09-12T10:09:37.453Z,98920.30
2022-09-12T10:14:41.946Z,98920.33
2022-09-12T10:19:49.860Z,98924.52
2022-09-12T10:25:11.802Z,98922.44
2022-09-12T10:30:14.764Z,98916.46
2022-09-12T10:35:21.291Z,98920.30
2022-09-12T10:40:32.716Z,98918.78
2022-09-12T10:45:37.879Z,98917.52
2022-09-12T10:50:43.668Z,98919.88
2022-09-12T10:55:57.408Z,98917.38
2022-09-12T11:01:28.582Z,98921.77
2022-09-12T11:06:48.388Z,98919.67
2022-09-12T11:11:53.892Z,98911.88
2022-09-12T11:17:22.294Z,98916.77
2022-09-12T11:22:48.548Z,98908.10
2022-09-12T11:28:28.289Z,98908.70
2022-09-12T11:33:43.150Z,98911.61
2022-09-12T11:39:03.842Z,98906.77
2022-09-12T11:44:15.848Z,98906.19
2022-09-12T11:49:33.539Z,98909.08
2022-09-12T11:54:53.934Z,98913.50
2022-09-12T12:00:11.059Z,98911.05
2022-09-12T12:05:37.579Z,98915.38
2022-09-12T12:10:43.280Z,98904.58
2022-09-12T12:15:51.133Z,98906.21
2022-09-12T12:20:56.218Z,98906.84
2022-09-12T12:26:01.106Z,98908.72
2022-09-12T12:31:05.892Z,98901.14
2022-09-12T12:36:10.973Z,98895.35
2022-09-12T12:41:16.877Z,98900.86
2022-09-12T12:46:24.891Z,98896.80
2022-09-12T12:51:31.058Z,98894.83
2022-09-12T12:56:41.307Z,98894.46
2022-09-12T13:01:51.483Z,98894.11
2022-09-12T13:07:07.711Z,98892.79
2022-09-12T13:12:18.719Z,98894.33
2022-09-12T13:17:47.899Z,98888.83
2022-09-12T13:22:52.797Z,98891.13
2022-09-12T13:28:07.951Z,98886.45
2022-09-12T13:33:18.650Z,98882.08
2022-09-12T13:38:57.801Z,98881.52
2022-09-12T13:44:02.529Z,98875.83
2022-09-12T13:49:38.880Z,98875.27
2022-09-12T13:54:45.845Z,98873.16
2022-09-12T13:59:49.697Z,98865.73
2022-09-12T14:05:23.459Z,98871.16
2022-09-12T14:10:32.006Z,98872.39
2022-09-12T14:15:37.771Z,98875.70
2022-09-12T14:20:42.049Z,98882.29
2022-09-12T14:25:48.105Z,98882.06
2022-09-12T14:31:03.781Z,98883.75
2022-09-12T14:36:19.855Z,98877.19
2022-09-12T14:41:29.610Z,98876.09
2022-09-12T14:46:37.054Z,98876.14
2022-09-12T14:51:50.744Z,98872.15
2022-09-12T14:57:00.983Z,98876.42
2022-09-12T15:02:22.141Z,98876.89
2022-09-12T15:07:42.548Z,98880.98
2022-09-12T15:12:45.355Z,98883.23
2022-09-12T15:17:48.366Z,98884.45
2022-09-12T15:22:51.819Z,98877.06
2022-09-12T15:27:56.153Z,98882.20
2022-09-12T15:33:00.220Z,98884.31
2022-09-12T15:38:03.306Z,98884.04
2022-09-12T15:43:06.498Z,98885.38
2022-09-12T15:48:09.836Z,98889.83
2022-09-12T15:53:17.319Z,98891.44
2022-09-12T15:58:20.790Z,98889.68
2022-09-12T16:03:28.838Z,98892.04
2022-09-12T16:08:33.085Z,98893.02
2022-09-12T16:13:37.369Z,98888.63
2022-09-12T16:18:40.972Z,98888.80
2022-09-12T16:23:44.842Z,98899.28
2022-09-12T16:28:47.898Z,98905.00
2022-09-12T16:33:50.893Z,98901.27
2022-09-12T16:38:54.704Z,98903.26
2022-09-12T16:43:58.247Z,98906.16
2022-09-12T16:49:01.537Z,98908.60
2022-09-12T16:54:04.899Z,98908.36
2022-09-12T16:59:12.255Z,98912.35
2022-09-12T17:04:15.175Z,98914.30
2022-09-12T17:09:18.785Z,98914.20
2022-09-12T17:14:21.692Z,98918.92
2022-09-12T17:19:29.766Z,98926.40
2022-09-12T17:24:33.241Z,98928.66
2022-09-12T17:29:37.705Z,98937.10
2022-09-12T17:34:40.677Z,98936.00
2022-09-12T17:39:44.164Z,98939.22
2022-09-12T17:44:47.742Z,98933.73
2022-09-12T17:50:05.157Z,98937.96
2022-09-12T17:55:17.271Z,98943.42
2022-09-12T18:00:40.851Z,98950.90
2022-09-12T18:05:48.459Z,98953.56
2022-09-12T18:10:52.356Z,98952.77
2022-09-12T18:15:55.697Z,98958.02
2022-09-12T18:20:59.090Z,98963.75
2022-09-12T18:26:05.187Z,98968.86
2022-09-12T18:31:15.502Z,98968.66
2022-09-12T18:36:19.939Z,98966.20
2022-09-12T18:41:24.904Z,98968.19
2022-09-12T18:46:29.972Z,98969.38
2022-09-12T18:51:36.030Z,98971.61
2022-09-12T18:56:41.007Z,98972.58
2022-09-12T19:01:45.016Z,98966.75
2022-09-12T19:06:50.457Z,98968.14
2022-09-12T19:11:54.191Z,98965.29
2022-09-12T19:16:57.279Z,98965.40
2022-09-12T19:22:00.463Z,98965.64
2022-09-12T19:27:04.101Z,98963.44
2022-09-12T19:32:07.722Z,98962.81
2022-09-12T19:37:10.744Z,98961.60
2022-09-12T19:42:13.627Z,98959.42
2022-09-12T19:47:16.640Z,98952.88
2022-09-12T19:52:19.696Z,98952.08
2022-09-12T19:57:22.776Z,98947.52
2022-09-12T20:02:28.042Z,98945.88
2022-09-12T20:07:31.075Z,98943.80
2022-09-12T20:12:34.226Z,98944.37
2022-09-12T20:17:37.116Z,98936.48
2022-09-12T20:22:40.350Z,98934.91
2022-09-12T20:27:43.724Z,98925.23
2022-09-12T20:32:46.888Z,98924.59
2022-09-12T20:37:49.850Z,98921.71
2022-09-12T20:42:53.007Z,98918.48
2022-09-12T20:47:55.895Z,98922.21
2022-09-12T20:52:59.131Z,98924.14
2022-09-12T20:58:02.327Z,98926.60
2022-09-12T21:03:05.304Z,98930.69
2022-09-12T21:08:08.314Z,98929.21
2022-09-12T21:13:13.342Z,98932.38
2022-09-12T21:18:16.176Z,98936.19
2022-09-12T21:23:19.082Z,98930.66
2022-09-12T21:28:22.315Z,98937.38
2022-09-12T21:33:25.145Z,98934.39
2022-09-12T21:38:28.074Z,98938.95
2022-09-12T21:43:31.085Z,98933.80
2022-09-12T21:48:34.436Z,98924.95
2022-09-12T21:53:37.565Z,98919.62
2022-09-12T21:58:40.607Z,98922.09
2022-09-12T22:03:44.954Z,98921.15
2022-09-12T22:08:47.844Z,98926.85
2022-09-12T22:13:50.740Z,98924.97
2022-09-12T22:18:54.049Z,98924.20
2022-09-12T22:24:26.224Z,98918.70
2022-09-12T22:29:29.172Z,98910.02
2022-09-12T22:34:32.009Z,98911.62
2022-09-12T22:39:34.968Z,98904.38
2022-09-12T22:44:37.822Z,98904.84
2022-09-12T22:49:42.844Z,98900.66
2022-09-12T22:54:46.144Z,98896.65
2022-09-12T22:59:49.237Z,98894.01
2022-09-12T23:04:52.554Z,98891.11
2022-09-12T23:09:55.372Z,98886.76
2022-09-12T23:14:58.265Z,98890.05
2022-09-12T23:20:01.538Z,98887.31
2022-09-12T23:25:04.835Z,98889.10
2022-09-12T23:30:09.492Z,98890.48
2022-09-12T23:35:16.162Z,98886.96
2022-09-12T23:40:19.071Z,98888.48
2022-09-12T23:45:21.997Z,98889.52
2022-09-12T23:50:24.847Z,98889.42
2022-09-12T23:55:27.695Z,98890.40
